Cleveland, Texas
Current Conditions -  °F | °C
As of 12:35 PM on Wednesday 26 Nov 2014 (Local Time) from K6R3 Reporting Station
Clear Clear  
Wind Chill: 20°   Ceiling: Unl
Heat Index: 20°   Visibility: 10mi
Dew Point:   Wind: 10mph
Humidity: 36%   Direction: 230°SW
Pressure: 30.2"   Gusts: 21mph
Location:  30.34°N, 95.09°W
Report Text: K6R3 261835Z AUTO 23009G18KT 10SM CLR 20/05 A3020 RMK AO2 T02030048
Loading
Personal Weather Stations






























Interactive Weather Map New forecast layout! Learn more

10-Day Weather Forecast

Advertisements
Track Severe Weather on mobile